sensor_id;sensor_type;location;lat;lon;timestamp;temperature;humidity
49385;DHT22;36795;45.028;38.968;2023-05-07T00:00:40;19.90;64.60
49385;DHT22;36795;45.028;38.968;2023-05-07T00:03:26;19.90;64.70
49385;DHT22;36795;45.028;38.968;2023-05-07T00:06:12;19.90;64.70
49385;DHT22;36795;45.028;38.968;2023-05-07T00:08:58;19.90;64.90
49385;DHT22;36795;45.028;38.968;2023-05-07T00:11:46;19.80;64.90
49385;DHT22;36795;45.028;38.968;2023-05-07T00:14:32;19.80;65.00
49385;DHT22;36795;45.028;38.968;2023-05-07T00:17:18;19.70;65.30
49385;DHT22;36795;45.028;38.968;2023-05-07T00:20:05;19.70;65.60
49385;DHT22;36795;45.028;38.968;2023-05-07T00:22:51;19.60;65.60
49385;DHT22;36795;45.028;38.968;2023-05-07T00:25:37;19.60;65.60
49385;DHT22;36795;45.028;38.968;2023-05-07T00:28:23;19.60;65.80
49385;DHT22;36795;45.028;38.968;2023-05-07T00:31:10;19.50;65.80
49385;DHT22;36795;45.028;38.968;2023-05-07T00:33:56;19.60;65.70
49385;DHT22;36795;45.028;38.968;2023-05-07T00:36:42;19.60;65.50
49385;DHT22;36795;45.028;38.968;2023-05-07T00:39:28;19.50;65.80
49385;DHT22;36795;45.028;38.968;2023-05-07T00:42:14;19.50;66.00
49385;DHT22;36795;45.028;38.968;2023-05-07T00:45:01;19.50;66.10
49385;DHT22;36795;45.028;38.968;2023-05-07T00:47:49;19.40;66.00
49385;DHT22;36795;45.028;38.968;2023-05-07T00:50:35;19.40;66.30
49385;DHT22;36795;45.028;38.968;2023-05-07T00:53:22;19.30;66.50
49385;DHT22;36795;45.028;38.968;2023-05-07T00:56:08;19.30;66.70
49385;DHT22;36795;45.028;38.968;2023-05-07T00:58:55;19.20;66.90
49385;DHT22;36795;45.028;38.968;2023-05-07T01:01:41;19.20;67.00
49385;DHT22;36795;45.028;38.968;2023-05-07T01:04:27;19.10;67.10
49385;DHT22;36795;45.028;38.968;2023-05-07T01:07:13;19.10;67.40
49385;DHT22;36795;45.028;38.968;2023-05-07T01:10:00;19.00;67.70
49385;DHT22;36795;45.028;38.968;2023-05-07T01:12:48;19.00;67.80
49385;DHT22;36795;45.028;38.968;2023-05-07T01:15:35;19.00;67.80
49385;DHT22;36795;45.028;38.968;2023-05-07T01:18:21;18.90;67.80
49385;DHT22;36795;45.028;38.968;2023-05-07T01:21:11;18.90;68.00
49385;DHT22;36795;45.028;38.968;2023-05-07T01:23:57;18.90;67.90
49385;DHT22;36795;45.028;38.968;2023-05-07T01:26:44;18.90;68.00
49385;DHT22;36795;45.028;38.968;2023-05-07T01:29:31;18.80;68.10
49385;DHT22;36795;45.028;38.968;2023-05-07T01:32:21;18.70;68.20
49385;DHT22;36795;45.028;38.968;2023-05-07T01:35:15;18.70;68.30
49385;DHT22;36795;45.028;38.968;2023-05-07T01:38:03;18.60;68.30
49385;DHT22;36795;45.028;38.968;2023-05-07T01:40:51;18.60;68.20
49385;DHT22;36795;45.028;38.968;2023-05-07T01:43:40;18.60;68.40
49385;DHT22;36795;45.028;38.968;2023-05-07T01:46:27;18.50;68.50
49385;DHT22;36795;45.028;38.968;2023-05-07T01:49:13;18.40;68.40
49385;DHT22;36795;45.028;38.968;2023-05-07T01:52:00;18.40;68.40
49385;DHT22;36795;45.028;38.968;2023-05-07T01:54:46;18.40;68.30
49385;DHT22;36795;45.028;38.968;2023-05-07T01:57:31;18.40;68.30
49385;DHT22;36795;45.028;38.968;2023-05-07T02:00:18;18.30;68.30
49385;DHT22;36795;45.028;38.968;2023-05-07T02:03:04;18.30;68.30
49385;DHT22;36795;45.028;38.968;2023-05-07T02:05:51;18.30;68.30
49385;DHT22;36795;45.028;38.968;2023-05-07T02:08:38;18.30;68.20
49385;DHT22;36795;45.028;38.968;2023-05-07T02:11:24;18.20;68.20
49385;DHT22;36795;45.028;38.968;2023-05-07T02:14:11;18.20;68.30
49385;DHT22;36795;45.028;38.968;2023-05-07T02:16:57;18.20;68.30
49385;DHT22;36795;45.028;38.968;2023-05-07T02:19:43;18.20;68.30
49385;DHT22;36795;45.028;38.968;2023-05-07T02:22:28;18.10;68.20
49385;DHT22;36795;45.028;38.968;2023-05-07T02:25:15;18.10;68.40
49385;DHT22;36795;45.028;38.968;2023-05-07T02:28:01;18.00;68.60
49385;DHT22;36795;45.028;38.968;2023-05-07T02:30:48;18.00;68.60
49385;DHT22;36795;45.028;38.968;2023-05-07T02:33:35;18.00;68.40
49385;DHT22;36795;45.028;38.968;2023-05-07T02:36:22;18.00;68.50
49385;DHT22;36795;45.028;38.968;2023-05-07T02:39:09;17.90;68.50
49385;DHT22;36795;45.028;38.968;2023-05-07T02:41:55;17.90;68.40
49385;DHT22;36795;45.028;38.968;2023-05-07T02:44:41;17.90;68.50
49385;DHT22;36795;45.028;38.968;2023-05-07T02:47:27;17.80;68.40
49385;DHT22;36795;45.028;38.968;2023-05-07T02:50:14;17.80;68.40
49385;DHT22;36795;45.028;38.968;2023-05-07T02:53:00;17.80;68.50
49385;DHT22;36795;45.028;38.968;2023-05-07T02:55:47;17.80;68.50
49385;DHT22;36795;45.028;38.968;2023-05-07T02:58:33;17.80;68.50
49385;DHT22;36795;45.028;38.968;2023-05-07T03:01:20;17.80;68.30
49385;DHT22;36795;45.028;38.968;2023-05-07T03:04:07;17.70;68.40
49385;DHT22;36795;45.028;38.968;2023-05-07T03:06:53;17.70;68.40
49385;DHT22;36795;45.028;38.968;2023-05-07T03:09:39;17.70;68.30
49385;DHT22;36795;45.028;38.968;2023-05-07T03:12:25;17.70;68.40
49385;DHT22;36795;45.028;38.968;2023-05-07T03:15:11;17.70;68.30
49385;DHT22;36795;45.028;38.968;2023-05-07T03:17:57;17.70;68.20
49385;DHT22;36795;45.028;38.968;2023-05-07T03:20:44;17.80;68.10
49385;DHT22;36795;45.028;38.968;2023-05-07T03:23:30;17.80;68.10
49385;DHT22;36795;45.028;38.968;2023-05-07T03:26:16;17.80;68.00
49385;DHT22;36795;45.028;38.968;2023-05-07T03:29:03;17.70;67.90
49385;DHT22;36795;45.028;38.968;2023-05-07T03:31:49;17.70;67.90
49385;DHT22;36795;45.028;38.968;2023-05-07T03:34:36;17.70;67.90
49385;DHT22;36795;45.028;38.968;2023-05-07T03:37:22;17.60;68.00
49385;DHT22;36795;45.028;38.968;2023-05-07T03:40:09;17.60;68.00
49385;DHT22;36795;45.028;38.968;2023-05-07T03:43:00;17.70;67.70
49385;DHT22;36795;45.028;38.968;2023-05-07T03:45:46;17.70;67.50
49385;DHT22;36795;45.028;38.968;2023-05-07T03:48:34;17.70;67.30
49385;DHT22;36795;45.028;38.968;2023-05-07T03:51:20;17.70;67.10
49385;DHT22;36795;45.028;38.968;2023-05-07T03:54:07;17.60;67.30
49385;DHT22;36795;45.028;38.968;2023-05-07T03:56:54;17.70;67.10
49385;DHT22;36795;45.028;38.968;2023-05-07T03:59:40;17.70;66.90
49385;DHT22;36795;45.028;38.968;2023-05-07T04:02:26;17.70;66.80
49385;DHT22;36795;45.028;38.968;2023-05-07T04:05:13;17.70;66.70
49385;DHT22;36795;45.028;38.968;2023-05-07T04:08:01;17.90;66.60
49385;DHT22;36795;45.028;38.968;2023-05-07T04:10:55;17.90;66.30
49385;DHT22;36795;45.028;38.968;2023-05-07T04:13:42;17.90;66.20
49385;DHT22;36795;45.028;38.968;2023-05-07T04:16:28;17.90;66.00
49385;DHT22;36795;45.028;38.968;2023-05-07T04:19:14;17.90;66.00
49385;DHT22;36795;45.028;38.968;2023-05-07T04:22:01;17.90;65.80
49385;DHT22;36795;45.028;38.968;2023-05-07T04:24:49;17.90;65.60
49385;DHT22;36795;45.028;38.968;2023-05-07T04:27:36;17.90;65.50
49385;DHT22;36795;45.028;38.968;2023-05-07T04:30:22;17.90;65.40
49385;DHT22;36795;45.028;38.968;2023-05-07T04:33:08;17.90;65.80
49385;DHT22;36795;45.028;38.968;2023-05-07T04:35:55;17.80;65.40
49385;DHT22;36795;45.028;38.968;2023-05-07T04:38:41;17.70;65.60
49385;DHT22;36795;45.028;38.968;2023-05-07T04:41:27;17.70;65.70
49385;DHT22;36795;45.028;38.968;2023-05-07T04:44:14;17.60;65.60
49385;DHT22;36795;45.028;38.968;2023-05-07T04:47:00;17.50;65.80
49385;DHT22;36795;45.028;38.968;2023-05-07T04:49:47;17.50;66.00
49385;DHT22;36795;45.028;38.968;2023-05-07T04:52:32;17.50;65.90
49385;DHT22;36795;45.028;38.968;2023-05-07T04:55:19;17.60;65.80
49385;DHT22;36795;45.028;38.968;2023-05-07T04:58:05;17.50;65.70
49385;DHT22;36795;45.028;38.968;2023-05-07T05:00:52;17.50;65.80
49385;DHT22;36795;45.028;38.968;2023-05-07T05:03:38;17.30;66.10
49385;DHT22;36795;45.028;38.968;2023-05-07T05:06:25;17.30;66.50
49385;DHT22;36795;45.028;38.968;2023-05-07T05:09:11;17.30;66.60
49385;DHT22;36795;45.028;38.968;2023-05-07T05:11:59;17.30;66.60
49385;DHT22;36795;45.028;38.968;2023-05-07T05:14:45;17.30;66.60
49385;DHT22;36795;45.028;38.968;2023-05-07T05:17:32;17.30;66.60
49385;DHT22;36795;45.028;38.968;2023-05-07T05:20:20;17.30;66.60
49385;DHT22;36795;45.028;38.968;2023-05-07T05:23:08;17.30;66.60
49385;DHT22;36795;45.028;38.968;2023-05-07T05:25:57;17.30;66.80
49385;DHT22;36795;45.028;38.968;2023-05-07T05:28:44;17.30;66.70
49385;DHT22;36795;45.028;38.968;2023-05-07T05:31:30;17.30;66.70
49385;DHT22;36795;45.028;38.968;2023-05-07T05:34:16;17.40;66.70
49385;DHT22;36795;45.028;38.968;2023-05-07T05:37:05;17.50;66.60
49385;DHT22;36795;45.028;38.968;2023-05-07T05:39:52;17.50;66.60
49385;DHT22;36795;45.028;38.968;2023-05-07T05:42:40;17.50;66.50
49385;DHT22;36795;45.028;38.968;2023-05-07T05:45:26;17.50;66.50
49385;DHT22;36795;45.028;38.968;2023-05-07T05:48:12;17.70;66.50
49385;DHT22;36795;45.028;38.968;2023-05-07T05:50:59;17.70;66.50
49385;DHT22;36795;45.028;38.968;2023-05-07T05:53:45;17.70;66.50
49385;DHT22;36795;45.028;38.968;2023-05-07T05:56:32;17.70;66.70
49385;DHT22;36795;45.028;38.968;2023-05-07T05:59:18;17.70;66.80
49385;DHT22;36795;45.028;38.968;2023-05-07T06:02:04;17.70;66.80
49385;DHT22;36795;45.028;38.968;2023-05-07T06:04:51;17.70;67.10
49385;DHT22;36795;45.028;38.968;2023-05-07T06:07:37;17.90;67.30
49385;DHT22;36795;45.028;38.968;2023-05-07T06:10:24;18.00;67.30
49385;DHT22;36795;45.028;38.968;2023-05-07T06:13:11;18.10;67.20
49385;DHT22;36795;45.028;38.968;2023-05-07T06:15:58;18.20;66.80
49385;DHT22;36795;45.028;38.968;2023-05-07T06:18:44;18.40;66.50
49385;DHT22;36795;45.028;38.968;2023-05-07T06:21:32;18.40;65.80
49385;DHT22;36795;45.028;38.968;2023-05-07T06:24:18;18.40;65.60
49385;DHT22;36795;45.028;38.968;2023-05-07T06:27:05;18.40;65.30
49385;DHT22;36795;45.028;38.968;2023-05-07T06:29:51;18.40;65.30
49385;DHT22;36795;45.028;38.968;2023-05-07T06:32:37;18.50;65.00
49385;DHT22;36795;45.028;38.968;2023-05-07T06:35:23;18.60;64.80
49385;DHT22;36795;45.028;38.968;2023-05-07T06:38:09;18.60;64.80
49385;DHT22;36795;45.028;38.968;2023-05-07T06:40:56;18.70;64.50
49385;DHT22;36795;45.028;38.968;2023-05-07T06:43:43;18.70;64.40
49385;DHT22;36795;45.028;38.968;2023-05-07T06:46:30;18.70;64.60
49385;DHT22;36795;45.028;38.968;2023-05-07T06:49:17;18.60;64.60
49385;DHT22;36795;45.028;38.968;2023-05-07T06:52:04;18.50;64.90
49385;DHT22;36795;45.028;38.968;2023-05-07T06:54:50;18.40;65.10
49385;DHT22;36795;45.028;38.968;2023-05-07T06:57:37;18.40;65.30
49385;DHT22;36795;45.028;38.968;2023-05-07T07:00:24;18.30;65.50
49385;DHT22;36795;45.028;38.968;2023-05-07T07:03:10;18.30;65.60
49385;DHT22;36795;45.028;38.968;2023-05-07T07:05:56;18.40;65.50
49385;DHT22;36795;45.028;38.968;2023-05-07T07:08:43;18.50;65.40
49385;DHT22;36795;45.028;38.968;2023-05-07T07:11:31;18.60;65.10
49385;DHT22;36795;45.028;38.968;2023-05-07T07:14:17;18.50;65.20
49385;DHT22;36795;45.028;38.968;2023-05-07T07:17:04;18.50;65.60
49385;DHT22;36795;45.028;38.968;2023-05-07T07:19:51;18.50;65.40
49385;DHT22;36795;45.028;38.968;2023-05-07T07:22:37;18.60;65.40
49385;DHT22;36795;45.028;38.968;2023-05-07T07:25:23;18.60;65.30
49385;DHT22;36795;45.028;38.968;2023-05-07T07:28:09;18.70;65.00
49385;DHT22;36795;45.028;38.968;2023-05-07T07:30:56;18.70;65.10
49385;DHT22;36795;45.028;38.968;2023-05-07T07:33:43;18.70;65.20
49385;DHT22;36795;45.028;38.968;2023-05-07T07:36:29;18.70;65.20
49385;DHT22;36795;45.028;38.968;2023-05-07T07:39:15;18.70;65.30
49385;DHT22;36795;45.028;38.968;2023-05-07T07:42:02;18.70;65.40
49385;DHT22;36795;45.028;38.968;2023-05-07T07:44:49;18.80;65.20
49385;DHT22;36795;45.028;38.968;2023-05-07T07:47:35;18.80;65.10
49385;DHT22;36795;45.028;38.968;2023-05-07T07:50:22;18.80;65.30
49385;DHT22;36795;45.028;38.968;2023-05-07T07:53:07;18.80;65.20
49385;DHT22;36795;45.028;38.968;2023-05-07T07:55:54;18.90;65.60
49385;DHT22;36795;45.028;38.968;2023-05-07T07:58:41;19.00;64.90
49385;DHT22;36795;45.028;38.968;2023-05-07T08:01:30;19.20;64.70
49385;DHT22;36795;45.028;38.968;2023-05-07T08:04:16;19.20;64.80
49385;DHT22;36795;45.028;38.968;2023-05-07T08:07:03;19.20;64.70
49385;DHT22;36795;45.028;38.968;2023-05-07T08:09:50;19.20;64.60
49385;DHT22;36795;45.028;38.968;2023-05-07T08:12:36;19.10;64.50
49385;DHT22;36795;45.028;38.968;2023-05-07T08:15:23;19.10;64.80
49385;DHT22;36795;45.028;38.968;2023-05-07T08:18:10;19.20;64.70
49385;DHT22;36795;45.028;38.968;2023-05-07T08:20:56;19.30;64.60
49385;DHT22;36795;45.028;38.968;2023-05-07T08:23:44;19.30;64.40
49385;DHT22;36795;45.028;38.968;2023-05-07T08:26:30;19.30;64.40
49385;DHT22;36795;45.028;38.968;2023-05-07T08:29:16;19.40;64.00
49385;DHT22;36795;45.028;38.968;2023-05-07T08:32:03;19.50;64.20
49385;DHT22;36795;45.028;38.968;2023-05-07T08:34:49;19.60;63.90
49385;DHT22;36795;45.028;38.968;2023-05-07T08:37:35;19.80;63.40
49385;DHT22;36795;45.028;38.968;2023-05-07T08:40:26;20.10;62.90
49385;DHT22;36795;45.028;38.968;2023-05-07T08:43:13;20.20;62.30
49385;DHT22;36795;45.028;38.968;2023-05-07T08:46:01;20.20;62.50
49385;DHT22;36795;45.028;38.968;2023-05-07T08:48:50;20.20;62.40
49385;DHT22;36795;45.028;38.968;2023-05-07T08:51:36;20.40;62.00
49385;DHT22;36795;45.028;38.968;2023-05-07T08:54:24;20.50;61.80
49385;DHT22;36795;45.028;38.968;2023-05-07T08:57:10;20.60;61.40
49385;DHT22;36795;45.028;38.968;2023-05-07T08:59:57;20.70;61.10
49385;DHT22;36795;45.028;38.968;2023-05-07T09:02:42;20.60;61.10
49385;DHT22;36795;45.028;38.968;2023-05-07T09:05:29;20.40;61.50
49385;DHT22;36795;45.028;38.968;2023-05-07T09:08:16;20.40;61.70
49385;DHT22;36795;45.028;38.968;2023-05-07T09:11:03;20.50;61.70
49385;DHT22;36795;45.028;38.968;2023-05-07T09:13:54;20.30;61.90
49385;DHT22;36795;45.028;38.968;2023-05-07T09:16:46;20.20;62.10
49385;DHT22;36795;45.028;38.968;2023-05-07T09:19:32;20.10;62.50
49385;DHT22;36795;45.028;38.968;2023-05-07T09:22:19;20.10;62.50
49385;DHT22;36795;45.028;38.968;2023-05-07T09:25:06;20.20;62.50
49385;DHT22;36795;45.028;38.968;2023-05-07T09:27:55;20.20;62.50
49385;DHT22;36795;45.028;38.968;2023-05-07T09:30:41;20.30;62.40
49385;DHT22;36795;45.028;38.968;2023-05-07T09:33:28;20.30;62.20
49385;DHT22;36795;45.028;38.968;2023-05-07T09:36:16;20.30;62.20
49385;DHT22;36795;45.028;38.968;2023-05-07T09:39:03;20.30;62.30
49385;DHT22;36795;45.028;38.968;2023-05-07T09:41:49;20.20;62.60
49385;DHT22;36795;45.028;38.968;2023-05-07T09:44:38;20.00;62.70
49385;DHT22;36795;45.028;38.968;2023-05-07T09:47:26;20.10;62.90
49385;DHT22;36795;45.028;38.968;2023-05-07T09:50:15;20.20;63.00
49385;DHT22;36795;45.028;38.968;2023-05-07T09:53:03;20.30;62.60
49385;DHT22;36795;45.028;38.968;2023-05-07T09:55:51;20.40;62.50
49385;DHT22;36795;45.028;38.968;2023-05-07T09:58:39;20.40;62.30
49385;DHT22;36795;45.028;38.968;2023-05-07T10:01:29;20.40;62.30
49385;DHT22;36795;45.028;38.968;2023-05-07T10:04:17;20.20;62.70
49385;DHT22;36795;45.028;38.968;2023-05-07T10:07:04;20.10;63.00
49385;DHT22;36795;45.028;38.968;2023-05-07T10:09:52;20.00;63.40
49385;DHT22;36795;45.028;38.968;2023-05-07T10:12:40;19.90;63.80
49385;DHT22;36795;45.028;38.968;2023-05-07T10:15:29;19.90;63.90
49385;DHT22;36795;45.028;38.968;2023-05-07T10:18:16;19.90;63.80
49385;DHT22;36795;45.028;38.968;2023-05-07T10:21:19;20.00;63.70
49385;DHT22;36795;45.028;38.968;2023-05-07T10:24:09;20.10;63.50
49385;DHT22;36795;45.028;38.968;2023-05-07T10:27:02;20.10;63.60
49385;DHT22;36795;45.028;38.968;2023-05-07T10:33:23;20.20;63.60
49385;DHT22;36795;45.028;38.968;2023-05-07T10:36:12;20.20;63.50
49385;DHT22;36795;45.028;38.968;2023-05-07T10:38:59;20.10;63.50
49385;DHT22;36795;45.028;38.968;2023-05-07T10:41:45;20.20;63.70
49385;DHT22;36795;45.028;38.968;2023-05-07T10:44:32;20.00;63.90
49385;DHT22;36795;45.028;38.968;2023-05-07T10:47:18;20.00;64.10
49385;DHT22;36795;45.028;38.968;2023-05-07T10:59:33;19.80;65.00
49385;DHT22;36795;45.028;38.968;2023-05-07T11:02:20;19.80;65.00
49385;DHT22;36795;45.028;38.968;2023-05-07T11:05:20;19.70;65.10
49385;DHT22;36795;45.028;38.968;2023-05-07T11:08:09;19.80;65.10
49385;DHT22;36795;45.028;38.968;2023-05-07T11:10:57;19.80;65.10
49385;DHT22;36795;45.028;38.968;2023-05-07T11:13:48;19.80;65.20
49385;DHT22;36795;45.028;38.968;2023-05-07T11:16:38;19.80;65.30
49385;DHT22;36795;45.028;38.968;2023-05-07T11:19:53;19.70;65.40
49385;DHT22;36795;45.028;38.968;2023-05-07T11:22:39;19.80;65.40
49385;DHT22;36795;45.028;38.968;2023-05-07T11:25:27;19.70;65.80
49385;DHT22;36795;45.028;38.968;2023-05-07T11:28:14;19.60;66.00
49385;DHT22;36795;45.028;38.968;2023-05-07T11:31:02;19.60;66.10
49385;DHT22;36795;45.028;38.968;2023-05-07T11:33:49;19.60;66.60
49385;DHT22;36795;45.028;38.968;2023-05-07T11:36:37;19.50;68.30
49385;DHT22;36795;45.028;38.968;2023-05-07T11:39:32;19.40;68.80
49385;DHT22;36795;45.028;38.968;2023-05-07T11:42:33;19.30;69.60
49385;DHT22;36795;45.028;38.968;2023-05-07T11:45:23;19.30;70.80
49385;DHT22;36795;45.028;38.968;2023-05-07T11:48:13;19.20;71.10
49385;DHT22;36795;45.028;38.968;2023-05-07T11:53:46;19.20;72.30
49385;DHT22;36795;45.028;38.968;2023-05-07T11:56:34;19.20;72.90
49385;DHT22;36795;45.028;38.968;2023-05-07T11:59:21;19.20;73.40
49385;DHT22;36795;45.028;38.968;2023-05-07T12:02:07;19.30;73.60
49385;DHT22;36795;45.028;38.968;2023-05-07T12:04:54;19.30;73.80
49385;DHT22;36795;45.028;38.968;2023-05-07T12:07:40;19.40;74.20
49385;DHT22;36795;45.028;38.968;2023-05-07T12:10:27;19.40;74.20
49385;DHT22;36795;45.028;38.968;2023-05-07T12:13:20;19.30;74.50
49385;DHT22;36795;45.028;38.968;2023-05-07T12:16:07;19.30;75.00
49385;DHT22;36795;45.028;38.968;2023-05-07T12:18:53;19.30;75.30
49385;DHT22;36795;45.028;38.968;2023-05-07T12:21:40;19.30;75.70
49385;DHT22;36795;45.028;38.968;2023-05-07T12:24:26;19.30;76.00
49385;DHT22;36795;45.028;38.968;2023-05-07T12:27:16;19.30;76.40
49385;DHT22;36795;45.028;38.968;2023-05-07T12:30:03;19.30;76.50
49385;DHT22;36795;45.028;38.968;2023-05-07T12:32:54;19.30;76.80
49385;DHT22;36795;45.028;38.968;2023-05-07T12:35:42;19.30;77.20
49385;DHT22;36795;45.028;38.968;2023-05-07T12:38:35;19.30;77.20
49385;DHT22;36795;45.028;38.968;2023-05-07T12:41:21;19.30;77.30
49385;DHT22;36795;45.028;38.968;2023-05-07T12:44:15;19.30;77.60
49385;DHT22;36795;45.028;38.968;2023-05-07T12:47:04;19.30;77.60
49385;DHT22;36795;45.028;38.968;2023-05-07T12:49:50;19.30;77.60
49385;DHT22;36795;45.028;38.968;2023-05-07T12:52:37;19.30;77.70
49385;DHT22;36795;45.028;38.968;2023-05-07T12:55:23;19.20;78.00
49385;DHT22;36795;45.028;38.968;2023-05-07T12:58:18;19.20;78.40
49385;DHT22;36795;45.028;38.968;2023-05-07T13:01:06;19.20;78.50
49385;DHT22;36795;45.028;38.968;2023-05-07T13:03:52;19.20;78.20
49385;DHT22;36795;45.028;38.968;2023-05-07T13:06:38;19.10;78.00
49385;DHT22;36795;45.028;38.968;2023-05-07T13:09:24;19.10;78.00
49385;DHT22;36795;45.028;38.968;2023-05-07T13:12:11;19.10;77.90
49385;DHT22;36795;45.028;38.968;2023-05-07T13:14:57;19.00;77.90
49385;DHT22;36795;45.028;38.968;2023-05-07T13:17:43;19.00;77.90
49385;DHT22;36795;45.028;38.968;2023-05-07T13:20:29;19.00;78.10
49385;DHT22;36795;45.028;38.968;2023-05-07T13:23:15;18.90;78.40
49385;DHT22;36795;45.028;38.968;2023-05-07T13:26:01;19.00;78.60
49385;DHT22;36795;45.028;38.968;2023-05-07T13:28:47;19.00;79.20
49385;DHT22;36795;45.028;38.968;2023-05-07T13:31:34;19.00;78.80
49385;DHT22;36795;45.028;38.968;2023-05-07T13:34:21;19.00;79.10
49385;DHT22;36795;45.028;38.968;2023-05-07T13:37:06;19.10;79.00
49385;DHT22;36795;45.028;38.968;2023-05-07T13:39:53;19.20;79.00
49385;DHT22;36795;45.028;38.968;2023-05-07T13:42:39;19.10;78.70
49385;DHT22;36795;45.028;38.968;2023-05-07T13:45:25;19.10;78.80
49385;DHT22;36795;45.028;38.968;2023-05-07T13:48:12;19.10;78.90
49385;DHT22;36795;45.028;38.968;2023-05-07T13:50:58;19.10;78.70
49385;DHT22;36795;45.028;38.968;2023-05-07T13:53:44;19.00;78.50
49385;DHT22;36795;45.028;38.968;2023-05-07T13:56:31;19.00;78.80
49385;DHT22;36795;45.028;38.968;2023-05-07T13:59:18;19.10;78.70
49385;DHT22;36795;45.028;38.968;2023-05-07T14:02:04;19.10;78.60
49385;DHT22;36795;45.028;38.968;2023-05-07T14:04:50;19.20;78.30
49385;DHT22;36795;45.028;38.968;2023-05-07T14:07:36;19.10;78.20
49385;DHT22;36795;45.028;38.968;2023-05-07T14:10:22;19.20;78.10
49385;DHT22;36795;45.028;38.968;2023-05-07T14:13:08;19.10;78.00
49385;DHT22;36795;45.028;38.968;2023-05-07T14:15:54;19.00;77.90
49385;DHT22;36795;45.028;38.968;2023-05-07T14:18:40;19.00;77.80
49385;DHT22;36795;45.028;38.968;2023-05-07T14:21:27;18.90;77.80
49385;DHT22;36795;45.028;38.968;2023-05-07T14:24:12;18.90;77.70
49385;DHT22;36795;45.028;38.968;2023-05-07T14:26:59;18.80;77.80
49385;DHT22;36795;45.028;38.968;2023-05-07T14:29:45;18.80;78.00
49385;DHT22;36795;45.028;38.968;2023-05-07T14:32:36;18.80;78.10
49385;DHT22;36795;45.028;38.968;2023-05-07T14:35:22;18.80;78.00
49385;DHT22;36795;45.028;38.968;2023-05-07T14:38:08;18.70;77.90
49385;DHT22;36795;45.028;38.968;2023-05-07T14:40:56;18.70;77.80
49385;DHT22;36795;45.028;38.968;2023-05-07T14:43:42;18.70;77.50
49385;DHT22;36795;45.028;38.968;2023-05-07T14:46:29;18.70;77.20
49385;DHT22;36795;45.028;38.968;2023-05-07T14:49:15;18.70;77.00
49385;DHT22;36795;45.028;38.968;2023-05-07T14:52:05;18.70;76.80
49385;DHT22;36795;45.028;38.968;2023-05-07T14:54:53;18.60;76.60
49385;DHT22;36795;45.028;38.968;2023-05-07T14:57:39;18.60;76.30
49385;DHT22;36795;45.028;38.968;2023-05-07T15:00:25;18.60;76.10
49385;DHT22;36795;45.028;38.968;2023-05-07T15:03:10;18.60;76.00
49385;DHT22;36795;45.028;38.968;2023-05-07T15:05:59;18.60;75.80
49385;DHT22;36795;45.028;38.968;2023-05-07T15:08:45;18.60;75.70
49385;DHT22;36795;45.028;38.968;2023-05-07T15:11:32;18.60;75.70
49385;DHT22;36795;45.028;38.968;2023-05-07T15:14:18;18.60;75.80
49385;DHT22;36795;45.028;38.968;2023-05-07T15:17:04;18.60;75.90
49385;DHT22;36795;45.028;38.968;2023-05-07T15:19:50;18.60;76.10
49385;DHT22;36795;45.028;38.968;2023-05-07T15:22:38;18.60;76.30
49385;DHT22;36795;45.028;38.968;2023-05-07T15:25:24;18.50;76.20
49385;DHT22;36795;45.028;38.968;2023-05-07T15:28:10;18.40;76.20
49385;DHT22;36795;45.028;38.968;2023-05-07T15:30:56;18.40;75.90
49385;DHT22;36795;45.028;38.968;2023-05-07T15:33:42;18.30;75.70
49385;DHT22;36795;45.028;38.968;2023-05-07T15:36:28;18.20;75.70
49385;DHT22;36795;45.028;38.968;2023-05-07T15:39:14;18.20;75.60
49385;DHT22;36795;45.028;38.968;2023-05-07T15:42:00;18.10;75.50
49385;DHT22;36795;45.028;38.968;2023-05-07T15:44:47;18.10;75.40
49385;DHT22;36795;45.028;38.968;2023-05-07T15:47:34;18.00;75.80
49385;DHT22;36795;45.028;38.968;2023-05-07T15:50:21;18.00;75.20
49385;DHT22;36795;45.028;38.968;2023-05-07T15:53:07;18.00;75.60
49385;DHT22;36795;45.028;38.968;2023-05-07T15:55:53;17.90;74.90
49385;DHT22;36795;45.028;38.968;2023-05-07T15:58:40;17.90;74.90
49385;DHT22;36795;45.028;38.968;2023-05-07T16:01:26;17.90;74.80
49385;DHT22;36795;45.028;38.968;2023-05-07T16:04:13;17.80;74.50
49385;DHT22;36795;45.028;38.968;2023-05-07T16:06:59;17.80;74.50
49385;DHT22;36795;45.028;38.968;2023-05-07T16:09:45;17.80;74.80
49385;DHT22;36795;45.028;38.968;2023-05-07T16:12:31;17.70;73.90
49385;DHT22;36795;45.028;38.968;2023-05-07T16:15:18;17.70;74.00
49385;DHT22;36795;45.028;38.968;2023-05-07T16:18:03;17.70;73.50
49385;DHT22;36795;45.028;38.968;2023-05-07T16:20:50;17.60;73.50
49385;DHT22;36795;45.028;38.968;2023-05-07T16:23:36;17.50;73.10
49385;DHT22;36795;45.028;38.968;2023-05-07T16:26:22;17.40;73.00
49385;DHT22;36795;45.028;38.968;2023-05-07T16:29:08;17.40;73.20
49385;DHT22;36795;45.028;38.968;2023-05-07T16:31:56;17.30;73.20
49385;DHT22;36795;45.028;38.968;2023-05-07T16:34:42;17.40;73.10
49385;DHT22;36795;45.028;38.968;2023-05-07T16:37:28;17.40;73.00
49385;DHT22;36795;45.028;38.968;2023-05-07T16:40:14;17.40;72.80
49385;DHT22;36795;45.028;38.968;2023-05-07T16:43:01;17.40;72.70
49385;DHT22;36795;45.028;38.968;2023-05-07T16:45:48;17.40;72.70
49385;DHT22;36795;45.028;38.968;2023-05-07T16:48:34;17.40;72.50
49385;DHT22;36795;45.028;38.968;2023-05-07T16:51:20;17.30;72.50
49385;DHT22;36795;45.028;38.968;2023-05-07T16:54:09;17.30;72.60
49385;DHT22;36795;45.028;38.968;2023-05-07T16:56:55;17.30;72.60
49385;DHT22;36795;45.028;38.968;2023-05-07T16:59:43;17.20;72.60
49385;DHT22;36795;45.028;38.968;2023-05-07T17:02:29;17.20;73.00
49385;DHT22;36795;45.028;38.968;2023-05-07T17:05:15;17.10;72.40
49385;DHT22;36795;45.028;38.968;2023-05-07T17:08:01;17.10;72.30
49385;DHT22;36795;45.028;38.968;2023-05-07T17:10:47;17.10;72.30
49385;DHT22;36795;45.028;38.968;2023-05-07T17:13:33;17.10;72.20
49385;DHT22;36795;45.028;38.968;2023-05-07T17:16:20;17.20;72.30
49385;DHT22;36795;45.028;38.968;2023-05-07T17:19:05;17.10;72.10
49385;DHT22;36795;45.028;38.968;2023-05-07T17:21:52;17.10;72.10
49385;DHT22;36795;45.028;38.968;2023-05-07T17:24:38;17.10;72.60
49385;DHT22;36795;45.028;38.968;2023-05-07T17:27:25;17.00;72.10
49385;DHT22;36795;45.028;38.968;2023-05-07T17:30:12;16.90;72.10
49385;DHT22;36795;45.028;38.968;2023-05-07T17:33:01;16.90;72.20